Time;durP1;ratioP1;P1;durP2;ratioP2;P2;SDS_P1;SDS_P2;PMS_P1;PMS_P2;Temp;Humidity;BMP_temperature;BMP_pressure;BME280_temperature;BME280_humidity;BME280_pressure;Samples;Min_cycle;Max_cycle;Signal;HPM_P1;HPM_P2
2024/02/14 00:01:39;;;;;;;7.43;2.78;;;6.60;99.90;;;;;;5052241;28;20055;-78
2024/02/14 00:04:07;;;;;;;5.18;2.38;;;6.60;99.90;;;;;;5068633;28;20546;-78
2024/02/14 00:06:36;;;;;;;5.43;2.55;;;6.50;99.90;;;;;;5068276;28;20056;-78
2024/02/14 00:09:01;;;;;;;6.82;2.55;;;6.60;99.90;;;;;;5051913;28;20021;-78
2024/02/14 00:11:27;;;;;;;4.97;2.47;;;6.60;99.90;;;;;;5052429;28;20079;-78
2024/02/14 00:13:53;;;;;;;7.15;2.97;;;6.60;99.90;;;;;;5053092;28;20084;-78
2024/02/14 00:16:19;;;;;;;6.78;2.72;;;6.60;99.90;;;;;;5051441;28;20032;-78
2024/02/14 00:18:44;;;;;;;4.90;2.28;;;6.70;99.90;;;;;;5068375;28;20458;-78
2024/02/14 00:21:10;;;;;;;6.47;2.60;;;6.70;99.90;;;;;;5068819;28;20068;-78
2024/02/14 00:23:36;;;;;;;5.97;2.55;;;6.70;99.90;;;;;;5052416;28;20040;-77
2024/02/14 00:26:02;;;;;;;4.57;2.20;;;6.80;99.90;;;;;;5053127;28;20518;-78
2024/02/14 00:28:27;;;;;;;5.18;2.28;;;6.80;99.90;;;;;;5068112;28;20025;-77
2024/02/14 00:30:53;;;;;;;5.82;2.72;;;6.80;99.90;;;;;;5068553;28;20036;-78
2024/02/14 00:33:20;;;;;;;8.63;2.38;;;6.80;99.90;;;;;;5067549;28;20048;-78
2024/02/14 00:35:46;;;;;;;5.35;2.50;;;6.90;99.90;;;;;;5052895;28;20021;-78
2024/02/14 00:38:11;;;;;;;6.70;2.97;;;6.90;99.90;;;;;;5051512;28;20048;-78
2024/02/14 00:40:37;;;;;;;4.95;2.38;;;6.90;99.90;;;;;;5050799;28;20068;-78
2024/02/14 00:43:02;;;;;;;5.10;2.70;;;6.90;99.90;;;;;;5067977;28;20098;-78
2024/02/14 00:45:28;;;;;;;8.32;2.90;;;6.90;99.90;;;;;;5054061;28;20502;-78
2024/02/14 00:47:53;;;;;;;5.07;2.35;;;7.00;99.90;;;;;;5055521;28;20482;-78
2024/02/14 00:50:19;;;;;;;9.32;2.88;;;6.90;99.90;;;;;;5071562;28;20091;-78
2024/02/14 00:52:45;;;;;;;5.30;2.83;;;7.00;99.90;;;;;;5056619;28;20032;-78
2024/02/14 00:55:11;;;;;;;6.57;2.65;;;6.90;99.90;;;;;;5071737;28;20021;-78
2024/02/14 00:57:36;;;;;;;8.40;2.83;;;7.00;99.90;;;;;;5054715;28;20111;-77
2024/02/14 01:00:03;;;;;;;4.75;2.42;;;7.00;99.90;;;;;;5056476;28;20510;-77
2024/02/14 01:02:29;;;;;;;6.78;2.45;;;7.00;99.90;;;;;;5070820;28;20032;-78
2024/02/14 01:04:55;;;;;;;4.95;2.53;;;7.00;99.90;;;;;;5056320;28;20028;-77
2024/02/14 01:07:21;;;;;;;5.43;2.40;;;7.00;99.90;;;;;;5055770;28;20029;-77
2024/02/14 01:09:47;;;;;;;4.75;2.28;;;6.90;99.90;;;;;;5056500;28;20409;-78
2024/02/14 01:12:12;;;;;;;5.05;2.08;;;7.00;99.90;;;;;;5072149;28;20040;-78
2024/02/14 01:14:38;;;;;;;3.42;2.22;;;7.00;99.90;;;;;;5056093;28;20501;-78
2024/02/14 01:17:03;;;;;;;7.15;2.38;;;7.00;99.90;;;;;;5071931;28;20049;-79
2024/02/14 01:19:29;;;;;;;4.28;2.15;;;7.00;99.90;;;;;;5055801;28;20090;-77
2024/02/14 01:21:56;;;;;;;5.40;2.17;;;7.00;99.90;;;;;;5055007;28;20036;-77
2024/02/14 01:24:22;;;;;;;4.43;2.45;;;7.00;99.90;;;;;;5055073;28;20458;-77
2024/02/14 01:26:50;;;;;;;5.30;2.35;;;7.00;99.90;;;;;;5071442;28;20032;-78
2024/02/14 01:29:16;;;;;;;5.32;2.30;;;7.00;99.90;;;;;;5071646;28;20040;-78
2024/02/14 01:31:42;;;;;;;5.53;2.00;;;7.00;99.90;;;;;;5054328;28;20028;-78
2024/02/14 01:34:08;;;;;;;6.40;2.25;;;7.00;99.90;;;;;;5055822;28;20021;-78
2024/02/14 01:36:33;;;;;;;11.90;2.60;;;7.00;99.90;;;;;;5055384;28;20397;-78
2024/02/14 01:38:59;;;;;;;4.43;2.25;;;7.00;99.90;;;;;;5055801;28;20432;-78
2024/02/14 01:41:24;;;;;;;5.75;2.05;;;7.00;99.90;;;;;;5053165;28;20036;-78
2024/02/14 01:43:50;;;;;;;5.18;2.30;;;7.00;99.90;;;;;;5055846;28;20049;-78
2024/02/14 01:46:16;;;;;;;9.98;3.03;;;6.90;99.90;;;;;;5056059;28;20025;-78
2024/02/14 01:48:42;;;;;;;4.18;2.13;;;6.90;99.90;;;;;;5055087;28;20035;-78
2024/02/14 01:51:11;;;;;;;3.88;2.30;;;6.90;99.90;;;;;;5054657;28;20207;-77
2024/02/14 01:53:38;;;;;;;5.97;2.30;;;6.90;99.90;;;;;;5054175;28;20032;-78
2024/02/14 01:56:04;;;;;;;3.85;2.13;;;6.90;99.90;;;;;;5054572;28;20028;-77
2024/02/14 01:58:30;;;;;;;5.85;2.00;;;6.90;99.90;;;;;;5054958;28;20112;-77
2024/02/14 02:00:58;;;;;;;6.22;2.40;;;6.90;99.90;;;;;;5055346;28;20056;-78
2024/02/14 02:03:25;;;;;;;3.92;2.00;;;6.90;99.90;;;;;;5053689;28;20021;-77
2024/02/14 02:05:51;;;;;;;5.35;2.13;;;6.90;99.90;;;;;;5055233;28;20025;-78
2024/02/14 02:08:17;;;;;;;3.38;1.60;;;6.90;99.90;;;;;;5053877;28;20028;-78
2024/02/14 02:10:43;;;;;;;5.35;1.75;;;6.90;99.90;;;;;;5054184;28;20037;-78
2024/02/14 02:13:09;;;;;;;4.25;2.13;;;6.90;99.90;;;;;;5053610;28;20037;-78
2024/02/14 02:15:35;;;;;;;4.25;1.90;;;6.80;99.90;;;;;;5053273;28;20071;-77
2024/02/14 02:18:04;;;;;;;5.28;1.85;;;6.80;99.90;;;;;;5053723;28;20064;-77
2024/02/14 02:20:31;;;;;;;3.95;1.80;;;6.80;99.90;;;;;;5053941;28;20347;-77
2024/02/14 02:22:57;;;;;;;4.88;1.98;;;6.80;99.90;;;;;;5054550;28;20028;-77
2024/02/14 02:25:25;;;;;;;3.67;1.80;;;6.80;99.90;;;;;;5052982;28;20025;-76
2024/02/14 02:27:51;;;;;;;10.10;2.10;;;6.80;99.90;;;;;;5054880;28;20022;-78
2024/02/14 02:30:17;;;;;;;3.00;1.63;;;6.70;99.90;;;;;;5054790;28;20029;-78
2024/02/14 02:32:43;;;;;;;6.45;2.35;;;6.70;99.90;;;;;;5052858;28;20035;-78
2024/02/14 02:35:09;;;;;;;4.25;1.77;;;6.70;99.90;;;;;;5053718;28;20466;-78
2024/02/14 02:37:35;;;;;;;3.28;1.98;;;6.70;99.90;;;;;;5052860;28;20031;-78
2024/02/14 02:40:01;;;;;;;2.75;1.77;;;6.70;99.90;;;;;;5054914;28;20033;-77
2024/02/14 02:42:27;;;;;;;4.07;1.93;;;6.70;99.90;;;;;;5053684;28;20052;-77
2024/02/14 02:44:53;;;;;;;4.60;1.92;;;6.70;99.90;;;;;;5054479;28;20025;-77
2024/02/14 02:47:18;;;;;;;5.22;2.10;;;6.70;99.90;;;;;;5053231;28;20029;-77
2024/02/14 02:49:44;;;;;;;4.13;1.58;;;6.70;99.90;;;;;;5052288;28;20043;-77
2024/02/14 02:52:13;;;;;;;3.85;1.80;;;6.80;99.90;;;;;;5054152;28;20021;-78
2024/02/14 02:54:43;;;;;;;5.97;2.10;;;6.80;99.90;;;;;;5052408;28;20025;-78
2024/02/14 02:57:10;;;;;;;3.97;1.88;;;6.80;99.90;;;;;;5054248;28;20378;-77
2024/02/14 02:59:36;;;;;;;3.97;1.85;;;6.90;99.90;;;;;;5052380;28;20137;-77
2024/02/14 03:02:02;;;;;;;4.10;2.07;;;6.90;99.90;;;;;;5054129;28;20462;-77
2024/02/14 03:04:29;;;;;;;9.20;1.80;;;7.00;99.90;;;;;;5053093;28;20025;-77
2024/02/14 03:06:54;;;;;;;5.30;2.10;;;7.00;99.90;;;;;;5053731;28;20028;-77
2024/02/14 03:09:22;;;;;;;4.63;1.67;;;7.00;99.90;;;;;;5052447;28;20033;-77
2024/02/14 03:11:47;;;;;;;2.70;1.55;;;7.10;99.90;;;;;;5051834;28;20080;-77
2024/02/14 03:14:13;;;;;;;3.13;1.70;;;7.00;99.90;;;;;;5053859;28;20025;-78
2024/02/14 03:16:39;;;;;;;2.92;1.60;;;7.10;99.90;;;;;;5051937;28;20032;-78
2024/02/14 03:19:05;;;;;;;3.85;1.70;;;7.10;99.90;;;;;;5053765;28;20025;-77
2024/02/14 03:21:35;;;;;;;3.80;1.60;;;7.20;99.90;;;;;;5053239;28;20029;-77
2024/02/14 03:24:04;;;;;;;4.82;2.05;;;7.20;99.90;;;;;;5052459;28;20078;-77
2024/02/14 03:26:33;;;;;;;3.08;1.60;;;7.30;99.90;;;;;;5052065;28;20385;-77
2024/02/14 03:29:06;;;;;;;4.32;1.75;;;7.30;99.90;;;;;;5052138;28;20037;-77
2024/02/14 03:31:32;;;;;;;5.50;1.83;;;7.30;99.90;;;;;;5051913;28;20123;-78
2024/02/14 03:33:57;;;;;;;4.78;1.73;;;7.30;99.90;;;;;;5052628;28;20029;-78
2024/02/14 03:36:24;;;;;;;6.30;1.70;;;7.20;99.90;;;;;;5053736;28;20546;-78
2024/02/14 03:38:50;;;;;;;5.05;1.70;;;7.20;99.90;;;;;;5052939;28;20025;-77
2024/02/14 03:41:15;;;;;;;3.92;1.63;;;7.30;99.90;;;;;;5052200;28;20466;-78
2024/02/14 03:43:41;;;;;;;3.58;1.50;;;7.30;99.90;;;;;;5051606;28;20053;-77
2024/02/14 03:46:06;;;;;;;3.40;1.35;;;7.40;99.90;;;;;;5053133;28;20029;-78
2024/02/14 03:48:32;;;;;;;5.57;1.40;;;7.40;99.90;;;;;;5052582;28;20025;-77
2024/02/14 03:50:58;;;;;;;6.63;1.35;;;7.50;99.90;;;;;;5053149;28;20039;-78
2024/02/14 03:53:24;;;;;;;3.60;1.65;;;7.50;99.90;;;;;;5053073;28;20104;-78
2024/02/14 03:55:50;;;;;;;6.53;1.63;;;7.50;99.90;;;;;;5052614;28;20025;-78
2024/02/14 03:58:18;;;;;;;2.50;1.08;;;7.50;99.90;;;;;;5053204;28;20396;-78
2024/02/14 04:00:44;;;;;;;4.88;1.52;;;7.50;99.90;;;;;;5052547;28;20036;-78
2024/02/14 04:03:12;;;;;;;2.67;1.42;;;7.50;99.90;;;;;;5052985;28;20370;-78
2024/02/14 04:05:39;;;;;;;3.97;1.23;;;7.50;99.90;;;;;;5051257;28;20024;-78
2024/02/14 04:08:06;;;;;;;2.00;1.27;;;7.50;99.90;;;;;;5051940;28;20032;-77
2024/02/14 04:10:31;;;;;;;5.65;1.33;;;7.50;99.90;;;;;;5051255;28;20187;-77
2024/02/14 04:12:58;;;;;;;2.65;1.23;;;7.50;99.90;;;;;;5052991;28;20104;-78
2024/02/14 04:15:23;;;;;;;4.35;1.60;;;7.50;99.90;;;;;;5052781;28;20029;-78
2024/02/14 04:17:50;;;;;;;3.55;1.35;;;7.50;99.90;;;;;;5050875;28;20082;-77
2024/02/14 04:20:15;;;;;;;2.72;1.00;;;7.60;99.90;;;;;;5053658;28;20040;-78
2024/02/14 04:22:43;;;;;;;1.58;0.98;;;7.60;99.90;;;;;;5055259;28;20036;-78
2024/02/14 04:25:09;;;;;;;1.85;1.02;;;7.70;99.90;;;;;;5056891;28;20025;-77
2024/02/14 04:27:34;;;;;;;2.58;1.10;;;7.70;99.90;;;;;;5056313;28;20032;-77
2024/02/14 04:30:01;;;;;;;2.25;1.05;;;7.80;99.90;;;;;;5056629;28;20036;-78
2024/02/14 04:32:27;;;;;;;6.50;1.00;;;7.80;99.90;;;;;;5057026;28;20114;-78
2024/02/14 04:34:53;;;;;;;3.03;1.10;;;7.80;99.90;;;;;;5056078;28;20053;-78
2024/02/14 04:37:18;;;;;;;3.42;0.90;;;7.90;99.90;;;;;;5055801;28;20108;-78
2024/02/14 04:39:44;;;;;;;2.30;0.90;;;7.90;99.90;;;;;;5055195;28;20037;-78
2024/02/14 04:42:09;;;;;;;1.95;0.90;;;7.90;99.90;;;;;;5056500;28;20059;-77
2024/02/14 04:44:35;;;;;;;2.95;1.20;;;8.00;99.90;;;;;;5055078;28;20037;-77
2024/02/14 04:47:01;;;;;;;4.38;0.90;;;8.00;99.90;;;;;;5055553;28;20021;-78
2024/02/14 04:49:28;;;;;;;1.83;0.95;;;8.10;99.90;;;;;;5056410;28;20117;-78
2024/02/14 04:51:54;;;;;;;3.88;0.93;;;8.10;99.90;;;;;;5054491;28;20025;-78
2024/02/14 04:54:20;;;;;;;3.45;1.10;;;8.10;99.90;;;;;;5055165;28;20032;-78
2024/02/14 04:56:45;;;;;;;1.60;0.85;;;8.20;99.90;;;;;;5054738;28;20029;-78
2024/02/14 04:59:12;;;;;;;2.80;0.80;;;8.20;99.90;;;;;;5055317;28;20549;-78
2024/02/14 05:01:39;;;;;;;6.32;1.02;;;8.20;99.90;;;;;;5054594;28;20027;-78
2024/02/14 05:04:05;;;;;;;3.05;0.80;;;8.30;99.90;;;;;;5055290;28;20491;-78
2024/02/14 05:06:30;;;;;;;2.80;0.77;;;8.30;99.90;;;;;;5054547;28;20117;-77
2024/02/14 05:08:56;;;;;;;1.33;0.57;;;8.40;99.90;;;;;;5055475;28;20017;-78
2024/02/14 05:11:22;;;;;;;2.33;1.05;;;8.50;99.90;;;;;;5054310;28;20033;-77
2024/02/14 05:13:48;;;;;;;2.83;0.90;;;8.60;99.90;;;;;;5054316;28;20025;-76
2024/02/14 05:16:17;;;;;;;3.80;0.80;;;8.60;99.90;;;;;;5056052;28;20054;-77
2024/02/14 05:18:43;;;;;;;2.83;1.00;;;8.70;99.90;;;;;;5054511;28;20444;-77
2024/02/14 05:21:08;;;;;;;4.82;0.80;;;8.70;99.90;;;;;;5055168;28;20122;-77
2024/02/14 05:23:35;;;;;;;1.52;0.90;;;8.80;99.90;;;;;;5054333;28;20024;-77
2024/02/14 05:26:02;;;;;;;2.67;1.48;;;8.80;99.90;;;;;;5054830;28;20024;-77
2024/02/14 05:28:28;;;;;;;1.25;0.75;;;8.80;99.90;;;;;;5055337;28;20024;-77
2024/02/14 05:30:54;;;;;;;3.80;0.70;;;8.80;99.90;;;;;;5052796;28;20066;-77
2024/02/14 05:33:22;;;;;;;3.13;0.90;;;8.90;99.90;;;;;;5054402;28;20382;-77
2024/02/14 05:35:50;;;;;;;4.53;1.00;;;8.90;99.90;;;;;;5055169;28;20027;-77
2024/02/14 05:38:16;;;;;;;5.00;0.90;;;8.90;99.90;;;;;;5055755;28;20100;-78
2024/02/14 05:40:43;;;;;;;3.67;0.90;;;8.90;99.90;;;;;;5059621;28;20052;-80
2024/02/14 05:43:10;;;;;;;6.10;0.90;;;8.90;99.90;;;;;;5058449;28;20045;-79
2024/02/14 05:45:36;;;;;;;3.55;0.82;;;9.00;99.90;;;;;;5054335;28;20029;-80
2024/02/14 05:48:01;;;;;;;2.35;0.93;;;9.00;99.90;;;;;;5054949;28;20104;-80
2024/02/14 05:50:27;;;;;;;3.55;0.88;;;9.00;99.90;;;;;;5054212;28;20036;-80
2024/02/14 05:52:53;;;;;;;2.53;0.70;;;9.00;99.90;;;;;;5053062;28;20025;-80
2024/02/14 05:55:19;;;;;;;3.95;0.90;;;9.00;99.90;;;;;;5053339;28;20170;-79
2024/02/14 05:57:44;;;;;;;5.53;0.98;;;9.10;99.90;;;;;;5053499;28;20033;-80
2024/02/14 06:00:12;;;;;;;2.33;0.98;;;9.10;99.90;;;;;;5053884;28;20036;-76
2024/02/14 06:02:39;;;;;;;4.82;0.80;;;9.10;99.90;;;;;;5052338;28;20143;-77
2024/02/14 06:05:10;;;;;;;2.40;0.82;;;9.10;99.90;;;;;;5053792;28;20025;-79
2024/02/14 06:07:37;;;;;;;2.28;1.10;;;9.10;99.90;;;;;;5053742;28;20417;-76
2024/02/14 06:10:02;;;;;;;2.53;0.73;;;9.10;99.90;;;;;;5053725;28;20064;-76
2024/02/14 06:12:29;;;;;;;1.65;0.70;;;9.20;99.90;;;;;;5073820;28;20524;-78
2024/02/14 06:14:55;;;;;;;3.25;0.80;;;9.20;99.90;;;;;;5074110;28;20021;-78
2024/02/14 06:17:21;;;;;;;3.45;0.98;;;9.20;99.90;;;;;;5074462;28;20020;-77
2024/02/14 06:19:46;;;;;;;2.00;0.95;;;9.20;99.90;;;;;;5073846;28;20035;-78
2024/02/14 06:22:12;;;;;;;3.28;0.80;;;9.20;99.90;;;;;;5074987;28;20027;-78
2024/02/14 06:24:38;;;;;;;3.88;0.93;;;9.30;99.90;;;;;;5073146;28;20029;-78
2024/02/14 06:27:03;;;;;;;3.28;1.00;;;9.30;99.90;;;;;;5075270;28;20082;-78
2024/02/14 06:29:29;;;;;;;4.57;1.00;;;9.30;99.90;;;;;;5074926;28;20037;-78
2024/02/14 06:31:55;;;;;;;4.68;1.10;;;9.30;99.90;;;;;;5074778;28;20032;-78
2024/02/14 06:34:20;;;;;;;3.85;0.90;;;9.30;99.90;;;;;;5073851;28;20546;-78
2024/02/14 06:36:49;;;;;;;3.10;0.90;;;9.30;99.90;;;;;;5074134;28;20024;-78
2024/02/14 06:39:14;;;;;;;4.85;0.93;;;9.40;99.90;;;;;;5074835;28;20028;-78
2024/02/14 06:41:40;;;;;;;4.35;1.10;;;9.40;99.90;;;;;;5072881;28;20028;-78
2024/02/14 06:44:05;;;;;;;3.15;0.98;;;9.40;99.90;;;;;;5073068;28;20061;-78
2024/02/14 06:46:31;;;;;;;1.98;1.10;;;9.40;99.90;;;;;;5074720;28;20028;-78
2024/02/14 06:48:57;;;;;;;4.63;1.20;;;9.30;99.90;;;;;;5072915;28;20029;-78
2024/02/14 06:51:24;;;;;;;4.13;0.98;;;9.30;99.90;;;;;;5073348;28;20037;-77
2024/02/14 06:53:50;;;;;;;1.98;0.88;;;9.30;99.90;;;;;;5072607;28;20086;-78
2024/02/14 06:56:16;;;;;;;4.10;0.90;;;9.20;99.90;;;;;;5074344;28;20032;-78
2024/02/14 06:58:41;;;;;;;3.22;0.98;;;9.30;99.90;;;;;;5072638;28;20029;-77
2024/02/14 07:01:07;;;;;;;1.75;0.90;;;9.20;99.90;;;;;;5074180;28;20098;-78
2024/02/14 07:03:33;;;;;;;4.40;1.10;;;9.20;99.90;;;;;;5074316;28;20034;-78
2024/02/14 07:05:59;;;;;;;3.28;0.90;;;9.20;99.90;;;;;;5073887;28;20104;-78
2024/02/14 07:08:27;;;;;;;4.72;1.10;;;9.20;99.90;;;;;;5073047;28;20465;-78
2024/02/14 07:10:54;;;;;;;2.97;1.00;;;9.20;99.90;;;;;;5073579;28;20401;-78
2024/02/14 07:13:20;;;;;;;3.63;1.10;;;9.20;99.90;;;;;;5074286;28;20024;-78
2024/02/14 07:15:45;;;;;;;2.50;0.85;;;9.20;99.90;;;;;;5072531;28;20024;-78
2024/02/14 07:18:11;;;;;;;1.30;0.73;;;9.20;99.90;;;;;;5074078;28;20378;-78
2024/02/14 07:20:37;;;;;;;1.75;1.10;;;9.20;99.90;;;;;;5073147;28;20036;-78
2024/02/14 07:23:03;;;;;;;2.95;0.98;;;9.30;99.90;;;;;;5073955;28;20074;-78
2024/02/14 07:25:29;;;;;;;3.17;1.20;;;9.20;99.90;;;;;;5073760;28;20025;-78
2024/02/14 07:27:55;;;;;;;5.88;1.10;;;9.20;99.90;;;;;;5072322;28;20029;-78
2024/02/14 07:30:20;;;;;;;4.35;0.88;;;9.20;99.90;;;;;;5072522;28;20481;-78
2024/02/14 07:32:46;;;;;;;5.80;1.00;;;9.30;99.90;;;;;;5071898;28;20031;-78
2024/02/14 07:35:13;;;;;;;2.63;0.90;;;9.30;99.90;;;;;;5073569;28;20024;-78
2024/02/14 07:37:39;;;;;;;4.22;1.00;;;9.30;99.90;;;;;;5071877;28;20433;-76
2024/02/14 07:40:05;;;;;;;4.65;1.35;;;9.30;99.90;;;;;;5072885;28;20043;-78
2024/02/14 07:42:31;;;;;;;4.20;1.58;;;9.40;99.90;;;;;;5073521;28;20101;-78
2024/02/14 07:44:57;;;;;;;3.90;1.45;;;9.40;99.90;;;;;;5071939;28;20127;-78
2024/02/14 07:47:22;;;;;;;2.97;1.17;;;9.40;99.90;;;;;;5073732;28;20028;-78
2024/02/14 07:49:48;;;;;;;4.10;1.10;;;9.40;99.90;;;;;;5072880;28;20045;-77
2024/02/14 07:52:14;;;;;;;2.40;1.08;;;9.40;99.90;;;;;;5072535;28;20029;-78
2024/02/14 07:54:40;;;;;;;4.05;1.20;;;9.40;99.90;;;;;;5072234;28;20381;-76
2024/02/14 07:57:06;;;;;;;3.38;1.27;;;9.50;99.90;;;;;;5072572;28;20029;-78
2024/02/14 07:59:31;;;;;;;3.60;1.02;;;9.50;99.90;;;;;;5071991;28;20028;-78
2024/02/14 08:01:57;;;;;;;4.32;1.10;;;9.50;99.90;;;;;;5071223;28;20131;-78
2024/02/14 08:04:22;;;;;;;3.67;1.10;;;9.50;99.90;;;;;;5072591;28;20020;-78
2024/02/14 08:06:51;;;;;;;3.28;0.85;;;9.60;99.90;;;;;;5072655;28;20025;-77
2024/02/14 08:09:16;;;;;;;2.13;1.00;;;9.60;99.90;;;;;;5073176;28;20021;-78
2024/02/14 08:11:42;;;;;;;4.20;0.98;;;9.60;99.90;;;;;;5071588;28;20036;-77
2024/02/14 08:14:08;;;;;;;2.40;1.02;;;9.70;99.90;;;;;;5071772;28;20427;-77
2024/02/14 08:16:35;;;;;;;2.92;1.10;;;9.70;99.90;;;;;;5072019;28;20025;-77
2024/02/14 08:19:01;;;;;;;2.38;0.98;;;9.70;99.90;;;;;;5071310;28;20088;-77
2024/02/14 08:21:27;;;;;;;2.00;1.00;;;9.70;99.90;;;;;;5071867;28;20029;-78
2024/02/14 08:23:54;;;;;;;4.50;1.58;;;9.70;99.90;;;;;;5071164;28;20021;-77
2024/02/14 08:26:24;;;;;;;4.60;1.00;;;9.70;99.90;;;;;;5071981;28;20078;-78
2024/02/14 08:28:49;;;;;;;2.03;0.80;;;9.80;99.90;;;;;;5072547;28;20123;-77
2024/02/14 08:31:15;;;;;;;3.58;1.13;;;9.80;99.90;;;;;;5071813;28;20463;-77
2024/02/14 08:33:41;;;;;;;4.20;1.00;;;9.80;99.90;;;;;;5072770;28;20031;-77
2024/02/14 08:36:07;;;;;;;3.65;1.30;;;9.80;99.90;;;;;;5072791;28;20052;-77
2024/02/14 08:38:35;;;;;;;3.00;0.82;;;9.80;99.90;;;;;;5072795;28;20056;-78
2024/02/14 08:41:02;;;;;;;3.78;1.27;;;9.90;99.90;;;;;;5071183;28;20054;-80
2024/02/14 08:43:28;;;;;;;3.08;1.25;;;9.90;99.90;;;;;;5071043;28;20469;-78
2024/02/14 08:45:54;;;;;;;4.18;1.58;;;9.90;99.90;;;;;;5071204;28;20060;-78
2024/02/14 08:48:20;;;;;;;6.80;1.23;;;9.90;99.90;;;;;;5071719;28;20119;-77
2024/02/14 08:50:46;;;;;;;5.15;1.30;;;9.90;99.90;;;;;;5071181;28;20128;-77
2024/02/14 08:53:13;;;;;;;5.38;1.45;;;10.00;99.90;;;;;;5072047;28;20028;-77
2024/02/14 08:55:40;;;;;;;2.25;1.05;;;10.00;99.90;;;;;;5071808;28;20024;-77
2024/02/14 08:58:05;;;;;;;4.00;1.30;;;10.00;99.90;;;;;;5071384;28;20025;-79
2024/02/14 09:00:31;;;;;;;2.97;1.10;;;10.00;99.90;;;;;;5071730;28;20029;-77
2024/02/14 09:03:00;;;;;;;2.10;1.08;;;10.00;99.90;;;;;;5071210;28;20461;-80
2024/02/14 09:05:25;;;;;;;2.78;0.90;;;10.00;99.90;;;;;;5072293;28;20032;-78
2024/02/14 09:07:51;;;;;;;3.72;1.10;;;10.00;99.90;;;;;;5074764;28;20021;-78
2024/02/14 09:10:17;;;;;;;5.47;1.10;;;10.00;99.90;;;;;;5075138;28;20066;-78
2024/02/14 09:12:43;;;;;;;3.88;1.33;;;10.10;99.90;;;;;;5075999;28;20086;-78
2024/02/14 09:15:09;;;;;;;4.20;1.05;;;10.10;99.90;;;;;;5074982;28;20082;-78
2024/02/14 09:17:35;;;;;;;3.63;1.30;;;10.20;99.90;;;;;;5075143;28;20025;-78
2024/02/14 09:20:01;;;;;;;1.92;1.05;;;10.20;99.90;;;;;;5075361;28;20036;-78
2024/02/14 09:22:26;;;;;;;6.25;1.42;;;10.30;99.90;;;;;;5075144;28;20024;-78
2024/02/14 09:24:52;;;;;;;4.93;1.10;;;10.30;99.90;;;;;;5074202;28;20028;-78
2024/02/14 09:27:18;;;;;;;4.43;0.80;;;10.40;99.90;;;;;;5076177;28;20028;-78
2024/02/14 09:29:43;;;;;;;6.60;1.27;;;10.40;99.90;;;;;;5074884;28;20040;-78
2024/02/14 09:32:09;;;;;;;4.07;1.00;;;10.50;99.90;;;;;;5074386;28;20082;-78
2024/02/14 09:34:35;;;;;;;5.65;0.93;;;10.60;99.90;;;;;;5074877;28;20035;-78
2024/02/14 09:37:00;;;;;;;3.42;1.20;;;10.60;99.90;;;;;;5074205;28;20031;-78
2024/02/14 09:39:26;;;;;;;3.40;1.23;;;10.60;99.90;;;;;;5074845;28;20470;-78
2024/02/14 09:41:57;;;;;;;2.88;1.10;;;10.60;99.90;;;;;;5074968;28;20025;-78
2024/02/14 09:44:23;;;;;;;4.53;1.30;;;10.60;99.90;;;;;;5074576;28;20043;-78
2024/02/14 09:46:49;;;;;;;1.40;0.88;;;10.60;99.90;;;;;;5073678;28;20033;-77
2024/02/14 09:49:16;;;;;;;3.05;0.82;;;10.70;99.90;;;;;;5074359;28;20112;-78
2024/02/14 09:51:44;;;;;;;3.50;0.90;;;10.70;99.90;;;;;;5075399;28;20425;-78
2024/02/14 09:54:11;;;;;;;2.65;1.20;;;10.70;99.90;;;;;;5073885;28;20050;-78
2024/02/14 09:56:36;;;;;;;1.63;0.90;;;10.70;99.90;;;;;;5075516;28;20438;-78
2024/02/14 09:59:02;;;;;;;1.50;0.82;;;10.80;99.90;;;;;;5073622;28;20078;-77
2024/02/14 10:01:28;;;;;;;2.28;0.80;;;10.80;99.90;;;;;;5074078;28;20031;-78
2024/02/14 10:03:54;;;;;;;1.65;0.82;;;10.80;99.90;;;;;;5073500;28;20064;-77
2024/02/14 10:06:20;;;;;;;3.50;1.10;;;10.80;99.90;;;;;;5073838;28;20029;-78
2024/02/14 10:08:50;;;;;;;2.85;1.50;;;10.90;99.90;;;;;;5073846;28;20025;-78
2024/02/14 10:11:21;;;;;;;1.98;0.90;;;10.90;99.90;;;;;;5073877;28;20036;-79
2024/02/14 10:13:47;;;;;;;3.78;1.30;;;11.00;99.90;;;;;;5075144;28;20032;-79
2024/02/14 10:16:14;;;;;;;3.40;1.00;;;11.00;99.90;;;;;;5074041;28;20028;-79
2024/02/14 10:18:40;;;;;;;5.00;1.45;;;11.00;99.90;;;;;;5072992;28;20029;-79
2024/02/14 10:21:06;;;;;;;1.85;1.23;;;11.00;99.90;;;;;;5072884;28;20032;-79
2024/02/14 10:23:32;;;;;;;2.75;1.00;;;11.10;99.90;;;;;;5074990;28;20029;-79
2024/02/14 10:25:58;;;;;;;1.80;0.70;;;11.10;99.90;;;;;;5073336;28;20370;-79
2024/02/14 10:28:24;;;;;;;2.20;0.80;;;11.10;99.90;;;;;;5073539;28;20046;-78
2024/02/14 10:30:50;;;;;;;3.10;1.00;;;11.10;99.90;;;;;;5072790;28;20036;-79
2024/02/14 10:33:16;;;;;;;2.88;2.00;;;11.10;99.90;;;;;;5073468;28;20028;-78
2024/02/14 10:35:42;;;;;;;3.38;1.30;;;11.20;99.90;;;;;;5073400;28;20111;-79
2024/02/14 10:38:09;;;;;;;5.05;1.60;;;11.20;99.90;;;;;;5072824;28;20059;-78
2024/02/14 10:40:35;;;;;;;2.17;1.25;;;11.10;99.90;;;;;;5073333;28;20063;-79
2024/02/14 10:43:01;;;;;;;1.75;1.05;;;11.20;99.90;;;;;;5072334;28;20551;-78
2024/02/14 10:45:27;;;;;;;1.88;1.15;;;11.20;99.90;;;;;;5073253;28;20028;-78
2024/02/14 10:47:53;;;;;;;3.08;1.35;;;11.30;99.90;;;;;;5072489;28;20043;-78
2024/02/14 10:50:22;;;;;;;3.05;1.17;;;11.30;99.90;;;;;;5073284;28;20044;-78
2024/02/14 10:52:48;;;;;;;2.38;1.10;;;11.40;99.90;;;;;;5074503;28;20386;-79
2024/02/14 10:55:16;;;;;;;2.30;0.98;;;11.50;99.90;;;;;;5073801;28;20036;-79
2024/02/14 10:57:45;;;;;;;1.50;1.00;;;11.50;99.90;;;;;;5073082;28;20028;-79
2024/02/14 11:00:14;;;;;;;2.70;0.90;;;11.50;99.90;;;;;;5072382;28;20029;-79
2024/02/14 11:02:41;;;;;;;4.35;1.50;;;11.50;99.90;;;;;;5073212;28;20374;-79
2024/02/14 11:05:14;;;;;;;6.28;1.60;;;11.60;99.90;;;;;;5072315;28;20154;-79
2024/02/14 11:07:48;;;;;;;2.55;1.20;;;11.60;99.90;;;;;;5073081;28;20020;-79
2024/02/14 11:10:15;;;;;;;3.15;1.10;;;11.60;99.90;;;;;;5072747;28;20040;-79
2024/02/14 11:12:41;;;;;;;5.28;1.45;;;11.70;99.90;;;;;;5074182;28;20032;-78
2024/02/14 11:15:24;;;;;;;2.30;1.10;;;11.90;99.90;;;;;;5073293;28;20390;-78
2024/02/14 11:17:54;;;;;;;1.48;0.82;;;11.90;99.90;;;;;;5073934;28;20063;-78
2024/02/14 11:20:30;;;;;;;3.50;0.85;;;11.80;99.90;;;;;;5072496;28;20068;-78
2024/02/14 11:23:05;;;;;;;2.70;1.00;;;11.90;99.90;;;;;;5071977;28;20028;-77
2024/02/14 11:25:33;;;;;;;6.50;1.88;;;11.90;99.90;;;;;;5073411;28;20037;-78
2024/02/14 11:28:02;;;;;;;2.72;0.90;;;12.00;99.90;;;;;;5073094;28;20032;-78
2024/02/14 11:30:35;;;;;;;2.80;1.10;;;12.10;99.90;;;;;;5073336;28;20033;-78
2024/02/14 11:33:14;;;;;;;3.08;1.08;;;12.10;99.90;;;;;;5071576;28;20032;-77
2024/02/14 11:35:43;;;;;;;2.88;1.10;;;12.10;99.90;;;;;;5073314;28;20021;-78
2024/02/14 11:38:09;;;;;;;2.95;0.88;;;12.10;99.90;;;;;;5071654;28;20035;-77
2024/02/14 11:40:38;;;;;;;2.15;0.70;;;12.20;99.90;;;;;;5073281;28;20060;-78
2024/02/14 11:43:04;;;;;;;2.25;1.00;;;12.30;99.90;;;;;;5071227;28;20386;-78
2024/02/14 11:45:30;;;;;;;1.48;0.80;;;12.50;99.90;;;;;;5072311;28;20035;-78
2024/02/14 11:47:56;;;;;;;2.10;0.93;;;12.60;99.90;;;;;;5071461;28;20458;-78
2024/02/14 11:50:22;;;;;;;2.08;0.80;;;12.70;99.90;;;;;;5071897;28;20390;-78
2024/02/14 11:52:47;;;;;;;1.58;0.80;;;12.90;99.90;;;;;;5072341;28;20028;-78
2024/02/14 11:55:17;;;;;;;2.05;0.65;;;13.00;99.90;;;;;;5071304;28;20221;-77
2024/02/14 11:57:42;;;;;;;3.33;0.70;;;12.90;99.90;;;;;;5071909;28;20414;-78
2024/02/14 12:00:08;;;;;;;1.02;0.70;;;13.00;99.90;;;;;;5071142;28;20109;-77
2024/02/14 12:02:35;;;;;;;1.17;0.70;;;12.90;99.90;;;;;;5073105;28;20036;-77
2024/02/14 12:05:04;;;;;;;1.20;0.80;;;12.90;99.90;;;;;;5072434;28;20020;-78
2024/02/14 12:07:30;;;;;;;2.22;0.77;;;13.00;99.90;;;;;;5071593;28;20025;-77
2024/02/14 12:09:56;;;;;;;6.70;1.00;;;13.00;99.90;;;;;;5071107;28;20036;-77
2024/02/14 12:12:22;;;;;;;1.40;0.65;;;13.10;99.90;;;;;;5071919;28;20032;-78
2024/02/14 12:14:52;;;;;;;2.90;1.00;;;13.20;99.90;;;;;;5071755;28;20054;-78
2024/02/14 12:17:21;;;;;;;1.63;0.70;;;13.20;99.90;;;;;;5070990;28;20029;-77
2024/02/14 12:19:48;;;;;;;1.75;0.65;;;13.10;99.90;;;;;;5072907;28;20056;-78
2024/02/14 12:22:17;;;;;;;4.65;1.00;;;13.20;99.90;;;;;;5072244;28;20477;-77
2024/02/14 12:24:49;;;;;;;1.05;0.63;;;13.30;99.90;;;;;;5071413;28;20043;-78
2024/02/14 12:27:18;;;;;;;;;;;13.20;99.90;;;;;;5072566;28;20418;-78
2024/02/14 12:29:46;;;;;;;2.55;1.13;;;13.30;99.90;;;;;;5071504;28;19912;-77
2024/02/14 12:32:16;;;;;;;1.63;0.73;;;13.40;99.90;;;;;;5072051;28;20098;-78
2024/02/14 12:34:44;;;;;;;1.98;0.65;;;13.50;99.90;;;;;;5072594;28;20025;-78
2024/02/14 12:37:11;;;;;;;2.60;0.70;;;13.60;99.90;;;;;;5070713;28;20385;-78
2024/02/14 12:39:37;;;;;;;2.85;0.60;;;13.60;99.90;;;;;;5071374;28;20024;-78
2024/02/14 12:42:03;;;;;;;1.35;0.90;;;13.60;99.90;;;;;;5073788;28;20136;-77
2024/02/14 12:44:29;;;;;;;2.13;0.88;;;13.60;99.90;;;;;;5075362;28;20042;-78
2024/02/14 12:46:55;;;;;;;1.65;0.60;;;13.70;99.90;;;;;;5075560;28;20033;-78
2024/02/14 12:49:21;;;;;;;2.10;0.68;;;13.70;99.90;;;;;;5074520;28;20033;-78